sensor_id;sensor_type;location;lat;lon;timestamp;P1;durP1;ratioP1;P2;durP2;ratioP2
40058;SDS011;25763;49.972;8.568;2022-10-26T00:02:25;8.57;;;7.97;;
40058;SDS011;25763;49.972;8.568;2022-10-26T00:04:50;7.45;;;6.95;;
40058;SDS011;25763;49.972;8.568;2022-10-26T00:07:15;7.78;;;7.28;;
40058;SDS011;25763;49.972;8.568;2022-10-26T00:09:41;7.60;;;7.10;;
40058;SDS011;25763;49.972;8.568;2022-10-26T00:12:06;7.85;;;7.30;;
40058;SDS011;25763;49.972;8.568;2022-10-26T00:14:32;7.40;;;6.90;;
40058;SDS011;25763;49.972;8.568;2022-10-26T00:16:57;7.70;;;7.20;;
40058;SDS011;25763;49.972;8.568;2022-10-26T00:19:23;8.38;;;7.78;;
40058;SDS011;25763;49.972;8.568;2022-10-26T00:21:48;7.80;;;7.30;;
40058;SDS011;25763;49.972;8.568;2022-10-26T00:24:14;7.45;;;6.95;;
40058;SDS011;25763;49.972;8.568;2022-10-26T00:26:39;8.00;;;7.50;;
40058;SDS011;25763;49.972;8.568;2022-10-26T00:29:05;8.75;;;7.95;;
40058;SDS011;25763;49.972;8.568;2022-10-26T00:31:31;7.93;;;7.43;;
40058;SDS011;25763;49.972;8.568;2022-10-26T00:33:56;7.55;;;7.05;;
40058;SDS011;25763;49.972;8.568;2022-10-26T00:36:22;7.40;;;6.90;;
40058;SDS011;25763;49.972;8.568;2022-10-26T00:38:49;8.07;;;7.38;;
40058;SDS011;25763;49.972;8.568;2022-10-26T00:41:29;7.15;;;6.65;;
40058;SDS011;25763;49.972;8.568;2022-10-26T00:43:56;7.72;;;7.22;;
40058;SDS011;25763;49.972;8.568;2022-10-26T00:46:26;8.95;;;8.15;;
40058;SDS011;25763;49.972;8.568;2022-10-26T00:49:13;7.55;;;7.05;;
40058;SDS011;25763;49.972;8.568;2022-10-26T00:51:41;7.82;;;7.32;;
40058;SDS011;25763;49.972;8.568;2022-10-26T00:54:15;7.50;;;7.00;;
40058;SDS011;25763;49.972;8.568;2022-10-26T00:56:43;8.45;;;7.60;;
40058;SDS011;25763;49.972;8.568;2022-10-26T00:59:10;8.05;;;7.45;;
40058;SDS011;25763;49.972;8.568;2022-10-26T01:01:37;8.10;;;7.60;;
40058;SDS011;25763;49.972;8.568;2022-10-26T01:04:05;8.18;;;7.65;;
40058;SDS011;25763;49.972;8.568;2022-10-26T01:06:31;7.85;;;7.30;;
40058;SDS011;25763;49.972;8.568;2022-10-26T01:08:58;7.40;;;6.90;;
40058;SDS011;25763;49.972;8.568;2022-10-26T01:11:23;7.78;;;7.28;;
40058;SDS011;25763;49.972;8.568;2022-10-26T01:13:49;7.60;;;7.10;;
40058;SDS011;25763;49.972;8.568;2022-10-26T01:19:21;7.75;;;7.25;;
40058;SDS011;25763;49.972;8.568;2022-10-26T01:22:25;8.60;;;8.00;;
40058;SDS011;25763;49.972;8.568;2022-10-26T01:25:02;8.45;;;7.88;;
40058;SDS011;25763;49.972;8.568;2022-10-26T01:27:37;8.00;;;7.50;;
40058;SDS011;25763;49.972;8.568;2022-10-26T01:36:02;9.15;;;8.55;;
40058;SDS011;25763;49.972;8.568;2022-10-26T01:38:39;8.85;;;8.25;;
40058;SDS011;25763;49.972;8.568;2022-10-26T01:41:08;9.98;;;9.23;;
40058;SDS011;25763;49.972;8.568;2022-10-26T01:43:41;9.10;;;8.50;;
40058;SDS011;25763;49.972;8.568;2022-10-26T01:46:10;8.75;;;8.15;;
40058;SDS011;25763;49.972;8.568;2022-10-26T01:48:36;9.38;;;8.77;;
40058;SDS011;25763;49.972;8.568;2022-10-26T01:51:03;8.82;;;8.20;;
40058;SDS011;25763;49.972;8.568;2022-10-26T01:53:31;8.52;;;7.93;;
40058;SDS011;25763;49.972;8.568;2022-10-26T01:55:56;9.00;;;8.20;;
40058;SDS011;25763;49.972;8.568;2022-10-26T01:58:44;8.00;;;7.50;;
40058;SDS011;25763;49.972;8.568;2022-10-26T02:01:18;9.70;;;9.02;;
40058;SDS011;25763;49.972;8.568;2022-10-26T02:09:29;9.10;;;8.35;;
40058;SDS011;25763;49.972;8.568;2022-10-26T02:12:02;9.30;;;8.70;;
40058;SDS011;25763;49.972;8.568;2022-10-26T02:14:37;8.90;;;8.30;;
40058;SDS011;25763;49.972;8.568;2022-10-26T02:17:06;9.30;;;8.70;;
40058;SDS011;25763;49.972;8.568;2022-10-26T02:19:45;8.80;;;8.20;;
40058;SDS011;25763;49.972;8.568;2022-10-26T02:22:34;9.93;;;9.23;;
40058;SDS011;25763;49.972;8.568;2022-10-26T02:25:14;10.07;;;9.38;;
40058;SDS011;25763;49.972;8.568;2022-10-26T02:27:56;10.38;;;9.73;;
40058;SDS011;25763;49.972;8.568;2022-10-26T02:30:25;9.80;;;9.20;;
40058;SDS011;25763;49.972;8.568;2022-10-26T02:32:52;9.50;;;8.90;;
40058;SDS011;25763;49.972;8.568;2022-10-26T02:35:21;9.40;;;8.60;;
40058;SDS011;25763;49.972;8.568;2022-10-26T02:37:51;9.90;;;9.30;;
40058;SDS011;25763;49.972;8.568;2022-10-26T02:40:19;9.95;;;9.15;;
40058;SDS011;25763;49.972;8.568;2022-10-26T02:42:48;9.30;;;8.65;;
40058;SDS011;25763;49.972;8.568;2022-10-26T02:45:16;10.27;;;9.52;;
40058;SDS011;25763;49.972;8.568;2022-10-26T02:47:46;9.07;;;8.48;;
40058;SDS011;25763;49.972;8.568;2022-10-26T02:50:11;10.02;;;9.32;;
40058;SDS011;25763;49.972;8.568;2022-10-26T02:52:44;11.00;;;10.30;;
40058;SDS011;25763;49.972;8.568;2022-10-26T02:55:19;9.95;;;9.32;;
40058;SDS011;25763;49.972;8.568;2022-10-26T02:57:53;10.45;;;9.65;;
40058;SDS011;25763;49.972;8.568;2022-10-26T03:00:24;10.30;;;9.70;;
40058;SDS011;25763;49.972;8.568;2022-10-26T03:02:53;11.90;;;9.82;;
40058;SDS011;25763;49.972;8.568;2022-10-26T03:05:25;9.50;;;8.90;;
40058;SDS011;25763;49.972;8.568;2022-10-26T03:07:53;9.55;;;8.95;;
40058;SDS011;25763;49.972;8.568;2022-10-26T03:10:19;10.05;;;9.43;;
40058;SDS011;25763;49.972;8.568;2022-10-26T03:12:45;10.75;;;9.55;;
40058;SDS011;25763;49.972;8.568;2022-10-26T03:15:11;9.80;;;9.20;;
40058;SDS011;25763;49.972;8.568;2022-10-26T03:17:36;11.27;;;10.57;;
40058;SDS011;25763;49.972;8.568;2022-10-26T03:20:01;10.30;;;9.70;;
40058;SDS011;25763;49.972;8.568;2022-10-26T03:22:27;9.93;;;9.18;;
40058;SDS011;25763;49.972;8.568;2022-10-26T03:24:52;10.02;;;9.43;;
40058;SDS011;25763;49.972;8.568;2022-10-26T03:27:18;9.63;;;9.02;;
40058;SDS011;25763;49.972;8.568;2022-10-26T03:29:43;9.40;;;8.77;;
40058;SDS011;25763;49.972;8.568;2022-10-26T03:32:09;9.48;;;8.88;;
40058;SDS011;25763;49.972;8.568;2022-10-26T03:34:34;9.80;;;9.20;;
40058;SDS011;25763;49.972;8.568;2022-10-26T03:36:59;9.90;;;9.25;;
40058;SDS011;25763;49.972;8.568;2022-10-26T03:39:25;10.57;;;9.88;;
40058;SDS011;25763;49.972;8.568;2022-10-26T03:41:50;9.93;;;9.27;;
40058;SDS011;25763;49.972;8.568;2022-10-26T03:44:15;9.20;;;8.60;;
40058;SDS011;25763;49.972;8.568;2022-10-26T03:46:41;11.13;;;10.32;;
40058;SDS011;25763;49.972;8.568;2022-10-26T03:49:06;10.20;;;9.50;;
40058;SDS011;25763;49.972;8.568;2022-10-26T03:51:32;9.60;;;9.00;;
40058;SDS011;25763;49.972;8.568;2022-10-26T03:53:57;9.40;;;8.80;;
40058;SDS011;25763;49.972;8.568;2022-10-26T03:56:22;10.20;;;9.57;;
40058;SDS011;25763;49.972;8.568;2022-10-26T03:58:48;9.32;;;8.73;;
40058;SDS011;25763;49.972;8.568;2022-10-26T04:01:13;9.10;;;8.50;;
40058;SDS011;25763;49.972;8.568;2022-10-26T04:03:39;9.77;;;9.18;;
40058;SDS011;25763;49.972;8.568;2022-10-26T04:06:04;9.38;;;8.77;;
40058;SDS011;25763;49.972;8.568;2022-10-26T04:08:30;9.60;;;9.00;;
40058;SDS011;25763;49.972;8.568;2022-10-26T04:10:56;9.07;;;8.48;;
40058;SDS011;25763;49.972;8.568;2022-10-26T04:13:21;9.60;;;9.00;;
40058;SDS011;25763;49.972;8.568;2022-10-26T04:15:47;10.18;;;9.48;;
40058;SDS011;25763;49.972;8.568;2022-10-26T04:18:13;9.70;;;9.07;;
40058;SDS011;25763;49.972;8.568;2022-10-26T04:20:39;10.45;;;9.75;;
40058;SDS011;25763;49.972;8.568;2022-10-26T04:23:11;9.43;;;8.82;;
40058;SDS011;25763;49.972;8.568;2022-10-26T04:25:38;10.90;;;10.18;;
40058;SDS011;25763;49.972;8.568;2022-10-26T04:28:04;10.25;;;9.55;;
40058;SDS011;25763;49.972;8.568;2022-10-26T04:30:31;9.35;;;8.75;;
40058;SDS011;25763;49.972;8.568;2022-10-26T04:32:57;11.10;;;10.30;;
40058;SDS011;25763;49.972;8.568;2022-10-26T04:35:23;10.52;;;9.82;;
40058;SDS011;25763;49.972;8.568;2022-10-26T04:37:48;10.15;;;9.50;;
40058;SDS011;25763;49.972;8.568;2022-10-26T04:40:14;10.50;;;9.90;;
40058;SDS011;25763;49.972;8.568;2022-10-26T04:42:42;9.80;;;9.15;;
40058;SDS011;25763;49.972;8.568;2022-10-26T04:45:10;9.48;;;8.88;;
40058;SDS011;25763;49.972;8.568;2022-10-26T04:47:36;12.10;;;10.20;;
40058;SDS011;25763;49.972;8.568;2022-10-26T04:50:01;10.65;;;9.85;;
40058;SDS011;25763;49.972;8.568;2022-10-26T04:52:27;10.07;;;9.40;;
40058;SDS011;25763;49.972;8.568;2022-10-26T04:54:52;10.23;;;9.52;;
40058;SDS011;25763;49.972;8.568;2022-10-26T04:57:18;11.13;;;10.18;;
40058;SDS011;25763;49.972;8.568;2022-10-26T04:59:43;10.52;;;9.82;;
40058;SDS011;25763;49.972;8.568;2022-10-26T05:02:08;10.60;;;9.90;;
40058;SDS011;25763;49.972;8.568;2022-10-26T05:04:34;11.48;;;10.45;;
40058;SDS011;25763;49.972;8.568;2022-10-26T05:06:59;11.07;;;10.35;;
40058;SDS011;25763;49.972;8.568;2022-10-26T05:09:24;11.05;;;10.35;;
40058;SDS011;25763;49.972;8.568;2022-10-26T05:11:50;11.25;;;10.55;;
40058;SDS011;25763;49.972;8.568;2022-10-26T05:14:15;10.75;;;10.05;;
40058;SDS011;25763;49.972;8.568;2022-10-26T05:16:40;11.32;;;10.55;;
40058;SDS011;25763;49.972;8.568;2022-10-26T05:19:08;11.18;;;10.48;;
40058;SDS011;25763;49.972;8.568;2022-10-26T05:21:34;10.77;;;10.18;;
40058;SDS011;25763;49.972;8.568;2022-10-26T05:23:59;10.60;;;9.95;;
40058;SDS011;25763;49.972;8.568;2022-10-26T05:26:25;11.05;;;10.32;;
40058;SDS011;25763;49.972;8.568;2022-10-26T05:28:50;10.80;;;10.10;;
40058;SDS011;25763;49.972;8.568;2022-10-26T05:31:16;12.05;;;11.25;;
40058;SDS011;25763;49.972;8.568;2022-10-26T05:33:41;10.60;;;10.00;;
40058;SDS011;25763;49.972;8.568;2022-10-26T05:36:07;10.63;;;10.02;;
40058;SDS011;25763;49.972;8.568;2022-10-26T05:38:32;11.32;;;10.52;;
40058;SDS011;25763;49.972;8.568;2022-10-26T05:40:58;11.77;;;11.00;;
40058;SDS011;25763;49.972;8.568;2022-10-26T05:43:25;10.63;;;9.82;;
40058;SDS011;25763;49.972;8.568;2022-10-26T05:45:51;10.95;;;10.25;;
40058;SDS011;25763;49.972;8.568;2022-10-26T05:48:17;11.98;;;11.18;;
40058;SDS011;25763;49.972;8.568;2022-10-26T05:50:43;11.70;;;11.00;;
40058;SDS011;25763;49.972;8.568;2022-10-26T05:53:08;11.40;;;10.70;;
40058;SDS011;25763;49.972;8.568;2022-10-26T05:55:34;11.82;;;11.02;;
40058;SDS011;25763;49.972;8.568;2022-10-26T05:57:59;34.95;;;27.63;;
40058;SDS011;25763;49.972;8.568;2022-10-26T06:00:26;28.15;;;25.42;;
40058;SDS011;25763;49.972;8.568;2022-10-26T06:03:06;19.65;;;18.08;;
40058;SDS011;25763;49.972;8.568;2022-10-26T06:05:49;13.50;;;12.60;;
40058;SDS011;25763;49.972;8.568;2022-10-26T06:08:23;10.82;;;10.13;;
40058;SDS011;25763;49.972;8.568;2022-10-26T06:10:50;11.90;;;11.13;;
40058;SDS011;25763;49.972;8.568;2022-10-26T06:13:17;11.70;;;11.00;;
40058;SDS011;25763;49.972;8.568;2022-10-26T06:19:02;11.90;;;11.13;;
40058;SDS011;25763;49.972;8.568;2022-10-26T06:24:32;11.73;;;11.02;;
40058;SDS011;25763;49.972;8.568;2022-10-26T06:27:27;12.52;;;11.73;;
40058;SDS011;25763;49.972;8.568;2022-10-26T06:30:05;12.73;;;11.68;;
40058;SDS011;25763;49.972;8.568;2022-10-26T06:32:34;11.07;;;10.38;;
40058;SDS011;25763;49.972;8.568;2022-10-26T06:38:01;10.32;;;9.63;;
40058;SDS011;25763;49.972;8.568;2022-10-26T06:40:30;12.05;;;11.35;;
40058;SDS011;25763;49.972;8.568;2022-10-26T06:42:57;11.25;;;10.55;;
40058;SDS011;25763;49.972;8.568;2022-10-26T06:45:23;10.52;;;9.88;;
40058;SDS011;25763;49.972;8.568;2022-10-26T06:48:03;11.23;;;10.52;;
40058;SDS011;25763;49.972;8.568;2022-10-26T06:50:39;11.27;;;10.57;;
40058;SDS011;25763;49.972;8.568;2022-10-26T06:55:59;11.57;;;9.80;;
40058;SDS011;25763;49.972;8.568;2022-10-26T06:58:26;10.77;;;10.07;;
40058;SDS011;25763;49.972;8.568;2022-10-26T07:00:55;23.27;;;11.53;;
40058;SDS011;25763;49.972;8.568;2022-10-26T07:03:21;11.75;;;10.80;;
40058;SDS011;25763;49.972;8.568;2022-10-26T07:05:47;11.80;;;11.02;;
40058;SDS011;25763;49.972;8.568;2022-10-26T07:08:12;12.85;;;12.05;;
40058;SDS011;25763;49.972;8.568;2022-10-26T07:10:38;11.20;;;10.40;;
40058;SDS011;25763;49.972;8.568;2022-10-26T07:13:04;10.63;;;9.98;;
40058;SDS011;25763;49.972;8.568;2022-10-26T07:15:30;12.15;;;11.35;;
40058;SDS011;25763;49.972;8.568;2022-10-26T07:17:56;10.65;;;9.95;;
40058;SDS011;25763;49.972;8.568;2022-10-26T07:20:21;11.02;;;10.32;;
40058;SDS011;25763;49.972;8.568;2022-10-26T07:22:53;11.18;;;10.48;;
40058;SDS011;25763;49.972;8.568;2022-10-26T07:25:20;11.18;;;10.48;;
40058;SDS011;25763;49.972;8.568;2022-10-26T07:27:46;11.13;;;10.43;;
40058;SDS011;25763;49.972;8.568;2022-10-26T07:30:11;11.63;;;10.93;;
40058;SDS011;25763;49.972;8.568;2022-10-26T07:32:37;11.18;;;10.48;;
40058;SDS011;25763;49.972;8.568;2022-10-26T07:35:03;11.20;;;10.50;;
40058;SDS011;25763;49.972;8.568;2022-10-26T07:37:28;17.98;;;10.93;;
40058;SDS011;25763;49.972;8.568;2022-10-26T07:39:54;11.98;;;11.13;;
40058;SDS011;25763;49.972;8.568;2022-10-26T07:42:19;11.63;;;10.82;;
40058;SDS011;25763;49.972;8.568;2022-10-26T07:44:44;11.60;;;10.82;;
40058;SDS011;25763;49.972;8.568;2022-10-26T07:47:10;11.77;;;10.98;;
40058;SDS011;25763;49.972;8.568;2022-10-26T07:49:35;11.15;;;10.45;;
40058;SDS011;25763;49.972;8.568;2022-10-26T07:52:01;10.23;;;9.63;;
40058;SDS011;25763;49.972;8.568;2022-10-26T07:54:26;11.10;;;10.40;;
40058;SDS011;25763;49.972;8.568;2022-10-26T07:56:51;11.25;;;10.57;;
40058;SDS011;25763;49.972;8.568;2022-10-26T07:59:17;11.05;;;10.35;;
40058;SDS011;25763;49.972;8.568;2022-10-26T08:01:42;9.75;;;9.15;;
40058;SDS011;25763;49.972;8.568;2022-10-26T08:04:08;10.52;;;9.88;;
40058;SDS011;25763;49.972;8.568;2022-10-26T08:06:34;10.02;;;9.43;;
40058;SDS011;25763;49.972;8.568;2022-10-26T08:08:59;10.40;;;9.70;;
40058;SDS011;25763;49.972;8.568;2022-10-26T08:11:24;9.90;;;9.30;;
40058;SDS011;25763;49.972;8.568;2022-10-26T08:13:50;10.38;;;9.68;;
40058;SDS011;25763;49.972;8.568;2022-10-26T08:16:19;11.15;;;10.45;;
40058;SDS011;25763;49.972;8.568;2022-10-26T08:18:48;10.13;;;9.43;;
40058;SDS011;25763;49.972;8.568;2022-10-26T08:21:14;10.73;;;9.85;;
40058;SDS011;25763;49.972;8.568;2022-10-26T08:23:40;10.75;;;10.05;;
40058;SDS011;25763;49.972;8.568;2022-10-26T08:26:06;9.85;;;9.15;;
40058;SDS011;25763;49.972;8.568;2022-10-26T08:28:31;10.00;;;9.40;;
40058;SDS011;25763;49.972;8.568;2022-10-26T08:30:57;10.95;;;10.25;;
40058;SDS011;25763;49.972;8.568;2022-10-26T08:33:23;10.02;;;9.32;;
40058;SDS011;25763;49.972;8.568;2022-10-26T08:35:53;9.80;;;9.15;;
40058;SDS011;25763;49.972;8.568;2022-10-26T08:38:20;8.80;;;8.20;;
40058;SDS011;25763;49.972;8.568;2022-10-26T08:40:45;8.65;;;8.05;;
40058;SDS011;25763;49.972;8.568;2022-10-26T08:43:21;8.73;;;8.13;;
40058;SDS011;25763;49.972;8.568;2022-10-26T08:48:32;8.65;;;7.95;;
40058;SDS011;25763;49.972;8.568;2022-10-26T08:51:06;9.88;;;9.20;;
40058;SDS011;25763;49.972;8.568;2022-10-26T08:53:51;8.50;;;7.90;;
40058;SDS011;25763;49.972;8.568;2022-10-26T08:56:22;9.00;;;8.40;;
40058;SDS011;25763;49.972;8.568;2022-10-26T08:58:54;9.15;;;8.45;;
40058;SDS011;25763;49.972;8.568;2022-10-26T09:01:24;8.75;;;8.15;;
40058;SDS011;25763;49.972;8.568;2022-10-26T09:03:50;9.40;;;8.80;;
40058;SDS011;25763;49.972;8.568;2022-10-26T09:06:29;8.60;;;7.90;;
40058;SDS011;25763;49.972;8.568;2022-10-26T09:09:16;7.90;;;7.40;;
40058;SDS011;25763;49.972;8.568;2022-10-26T09:11:49;8.85;;;8.25;;
40058;SDS011;25763;49.972;8.568;2022-10-26T09:14:31;8.48;;;7.88;;
40058;SDS011;25763;49.972;8.568;2022-10-26T09:25:56;8.95;;;8.27;;
40058;SDS011;25763;49.972;8.568;2022-10-26T09:28:24;8.25;;;7.65;;
40058;SDS011;25763;49.972;8.568;2022-10-26T09:30:51;9.20;;;8.50;;
40058;SDS011;25763;49.972;8.568;2022-10-26T09:33:18;8.43;;;7.82;;
40058;SDS011;25763;49.972;8.568;2022-10-26T09:35:47;8.85;;;8.25;;
40058;SDS011;25763;49.972;8.568;2022-10-26T09:38:32;9.93;;;9.20;;
40058;SDS011;25763;49.972;8.568;2022-10-26T09:43:34;9.80;;;9.20;;
40058;SDS011;25763;49.972;8.568;2022-10-26T09:46:01;9.50;;;8.80;;
40058;SDS011;25763;49.972;8.568;2022-10-26T09:48:38;9.30;;;8.70;;
40058;SDS011;25763;49.972;8.568;2022-10-26T09:51:09;8.65;;;8.05;;
40058;SDS011;25763;49.972;8.568;2022-10-26T09:53:35;10.13;;;7.80;;
40058;SDS011;25763;49.972;8.568;2022-10-26T09:56:07;9.23;;;8.52;;
40058;SDS011;25763;49.972;8.568;2022-10-26T09:58:53;9.27;;;8.68;;
40058;SDS011;25763;49.972;8.568;2022-10-26T10:06:40;8.00;;;7.50;;
40058;SDS011;25763;49.972;8.568;2022-10-26T10:09:15;9.82;;;9.02;;
40058;SDS011;25763;49.972;8.568;2022-10-26T10:11:58;8.48;;;7.88;;
40058;SDS011;25763;49.972;8.568;2022-10-26T10:14:39;7.95;;;7.45;;
40058;SDS011;25763;49.972;8.568;2022-10-26T10:17:19;9.10;;;8.50;;
40058;SDS011;25763;49.972;8.568;2022-10-26T10:19:46;10.93;;;10.23;;
40058;SDS011;25763;49.972;8.568;2022-10-26T10:24:52;11.75;;;11.05;;
40058;SDS011;25763;49.972;8.568;2022-10-26T10:27:17;14.75;;;13.95;;
40058;SDS011;25763;49.972;8.568;2022-10-26T10:29:45;14.27;;;13.48;;
40058;SDS011;25763;49.972;8.568;2022-10-26T10:32:17;18.75;;;17.67;;
40058;SDS011;25763;49.972;8.568;2022-10-26T10:34:47;22.20;;;21.00;;
40058;SDS011;25763;49.972;8.568;2022-10-26T10:40:17;22.40;;;21.20;;
40058;SDS011;25763;49.972;8.568;2022-10-26T10:42:45;27.95;;;26.48;;
40058;SDS011;25763;49.972;8.568;2022-10-26T10:45:18;38.72;;;36.72;;
40058;SDS011;25763;49.972;8.568;2022-10-26T10:47:59;38.50;;;36.55;;
40058;SDS011;25763;49.972;8.568;2022-10-26T10:50:36;41.05;;;38.92;;
40058;SDS011;25763;49.972;8.568;2022-10-26T10:53:15;45.22;;;42.70;;
40058;SDS011;25763;49.972;8.568;2022-10-26T10:56:00;42.30;;;40.08;;
40058;SDS011;25763;49.972;8.568;2022-10-26T11:01:20;33.75;;;31.67;;
40058;SDS011;25763;49.972;8.568;2022-10-26T11:04:10;39.20;;;37.15;;
40058;SDS011;25763;49.972;8.568;2022-10-26T11:06:58;36.47;;;34.58;;
40058;SDS011;25763;49.972;8.568;2022-10-26T11:09:27;34.30;;;32.05;;
40058;SDS011;25763;49.972;8.568;2022-10-26T11:12:08;30.63;;;29.02;;
40058;SDS011;25763;49.972;8.568;2022-10-26T11:14:43;36.53;;;34.53;;
40058;SDS011;25763;49.972;8.568;2022-10-26T11:17:20;48.78;;;46.33;;
40058;SDS011;25763;49.972;8.568;2022-10-26T11:19:53;51.25;;;48.65;;
40058;SDS011;25763;49.972;8.568;2022-10-26T11:22:23;48.50;;;46.05;;
40058;SDS011;25763;49.972;8.568;2022-10-26T11:24:55;47.42;;;45.00;;
40058;SDS011;25763;49.972;8.568;2022-10-26T11:27:28;43.45;;;41.22;;
40058;SDS011;25763;49.972;8.568;2022-10-26T11:30:01;49.33;;;46.70;;
40058;SDS011;25763;49.972;8.568;2022-10-26T11:32:46;46.95;;;44.25;;
40058;SDS011;25763;49.972;8.568;2022-10-26T11:35:25;49.13;;;46.63;;
40058;SDS011;25763;49.972;8.568;2022-10-26T11:41:13;41.40;;;39.28;;
40058;SDS011;25763;49.972;8.568;2022-10-26T11:43:52;43.65;;;41.35;;
40058;SDS011;25763;49.972;8.568;2022-10-26T11:46:29;42.65;;;40.35;;
40058;SDS011;25763;49.972;8.568;2022-10-26T11:49:10;50.45;;;47.88;;
40058;SDS011;25763;49.972;8.568;2022-10-26T11:54:14;46.97;;;44.47;;
40058;SDS011;25763;49.972;8.568;2022-10-26T11:56:46;48.90;;;46.35;;
40058;SDS011;25763;49.972;8.568;2022-10-26T11:59:16;49.75;;;47.22;;
40058;SDS011;25763;49.972;8.568;2022-10-26T12:01:46;48.95;;;46.47;;
40058;SDS011;25763;49.972;8.568;2022-10-26T12:04:12;46.45;;;44.05;;
40058;SDS011;25763;49.972;8.568;2022-10-26T12:06:39;52.40;;;49.75;;
40058;SDS011;25763;49.972;8.568;2022-10-26T12:09:11;49.60;;;47.05;;
40058;SDS011;25763;49.972;8.568;2022-10-26T12:20:00;52.92;;;50.03;;
40058;SDS011;25763;49.972;8.568;2022-10-26T12:22:32;55.05;;;52.25;;
40058;SDS011;25763;49.972;8.568;2022-10-26T12:37:56;56.45;;;53.50;;
40058;SDS011;25763;49.972;8.568;2022-10-26T12:42:57;64.20;;;60.90;;
40058;SDS011;25763;49.972;8.568;2022-10-26T12:45:43;62.67;;;59.50;;
40058;SDS011;25763;49.972;8.568;2022-10-26T12:50:46;65.18;;;61.83;;
40058;SDS011;25763;49.972;8.568;2022-10-26T12:53:14;66.63;;;63.30;;
40058;SDS011;25763;49.972;8.568;2022-10-26T13:06:47;58.03;;;55.10;;
40058;SDS011;25763;49.972;8.568;2022-10-26T13:09:26;58.70;;;55.75;;
40058;SDS011;25763;49.972;8.568;2022-10-26T13:11:55;61.00;;;57.88;;
40058;SDS011;25763;49.972;8.568;2022-10-26T13:14:30;62.85;;;59.60;;
40058;SDS011;25763;49.972;8.568;2022-10-26T13:17:02;64.28;;;60.97;;
40058;SDS011;25763;49.972;8.568;2022-10-26T13:22:05;58.15;;;55.25;;
40058;SDS011;25763;49.972;8.568;2022-10-26T13:24:37;62.63;;;59.35;;
40058;SDS011;25763;49.972;8.568;2022-10-26T13:32:49;45.30;;;43.03;;
40058;SDS011;25763;49.972;8.568;2022-10-26T13:35:17;43.80;;;41.58;;
40058;SDS011;25763;49.972;8.568;2022-10-26T13:37:46;46.67;;;44.25;;
40058;SDS011;25763;49.972;8.568;2022-10-26T13:40:17;54.05;;;51.25;;
40058;SDS011;25763;49.972;8.568;2022-10-26T13:42:46;36.80;;;34.88;;
40058;SDS011;25763;49.972;8.568;2022-10-26T13:45:17;32.53;;;30.85;;
40058;SDS011;25763;49.972;8.568;2022-10-26T13:50:38;40.35;;;38.30;;
40058;SDS011;25763;49.972;8.568;2022-10-26T13:53:13;34.88;;;33.08;;
40058;SDS011;25763;49.972;8.568;2022-10-26T13:55:54;29.25;;;27.73;;
40058;SDS011;25763;49.972;8.568;2022-10-26T13:58:30;35.85;;;34.00;;
40058;SDS011;25763;49.972;8.568;2022-10-26T14:01:02;44.13;;;41.88;;
40058;SDS011;25763;49.972;8.568;2022-10-26T14:03:28;38.45;;;36.45;;
40058;SDS011;25763;49.972;8.568;2022-10-26T14:05:53;39.58;;;37.53;;
40058;SDS011;25763;49.972;8.568;2022-10-26T14:08:19;30.98;;;29.35;;
40058;SDS011;25763;49.972;8.568;2022-10-26T14:10:46;38.97;;;36.97;;
40058;SDS011;25763;49.972;8.568;2022-10-26T14:13:16;35.70;;;33.85;;
40058;SDS011;25763;49.972;8.568;2022-10-26T14:15:47;29.17;;;27.65;;
40058;SDS011;25763;49.972;8.568;2022-10-26T14:20:54;39.10;;;37.10;;
40058;SDS011;25763;49.972;8.568;2022-10-26T14:25:57;33.60;;;31.85;;
40058;SDS011;25763;49.972;8.568;2022-10-26T14:28:27;32.95;;;31.25;;
40058;SDS011;25763;49.972;8.568;2022-10-26T14:31:09;31.60;;;29.95;;
40058;SDS011;25763;49.972;8.568;2022-10-26T14:33:38;29.60;;;28.00;;
40058;SDS011;25763;49.972;8.568;2022-10-26T14:36:04;29.95;;;28.25;;
40058;SDS011;25763;49.972;8.568;2022-10-26T14:38:30;32.20;;;30.33;;
40058;SDS011;25763;49.972;8.568;2022-10-26T14:41:01;29.38;;;27.80;;
40058;SDS011;25763;49.972;8.568;2022-10-26T14:43:27;27.20;;;25.40;;
40058;SDS011;25763;49.972;8.568;2022-10-26T14:45:52;27.70;;;26.23;;
40058;SDS011;25763;49.972;8.568;2022-10-26T14:48:19;27.20;;;25.65;;
40058;SDS011;25763;49.972;8.568;2022-10-26T14:50:57;30.95;;;28.25;;
40058;SDS011;25763;49.972;8.568;2022-10-26T14:53:34;29.08;;;27.55;;
40058;SDS011;25763;49.972;8.568;2022-10-26T14:56:05;26.70;;;25.30;;
40058;SDS011;25763;49.972;8.568;2022-10-26T15:03:55;24.08;;;22.83;;
40058;SDS011;25763;49.972;8.568;2022-10-26T15:08:55;29.23;;;27.70;;
40058;SDS011;25763;49.972;8.568;2022-10-26T15:11:21;29.08;;;27.58;;
40058;SDS011;25763;49.972;8.568;2022-10-26T15:13:47;33.40;;;31.65;;
40058;SDS011;25763;49.972;8.568;2022-10-26T15:16:16;40.40;;;38.35;;
40058;SDS011;25763;49.972;8.568;2022-10-26T15:18:47;44.40;;;42.13;;
40058;SDS011;25763;49.972;8.568;2022-10-26T15:26:12;35.28;;;33.42;;
40058;SDS011;25763;49.972;8.568;2022-10-26T15:28:38;44.47;;;42.08;;
40058;SDS011;25763;49.972;8.568;2022-10-26T15:33:39;50.00;;;47.45;;
40058;SDS011;25763;49.972;8.568;2022-10-26T15:36:13;48.70;;;46.25;;
40058;SDS011;25763;49.972;8.568;2022-10-26T15:38:40;48.03;;;45.60;;
40058;SDS011;25763;49.972;8.568;2022-10-26T15:43:50;52.05;;;49.40;;
40058;SDS011;25763;49.972;8.568;2022-10-26T15:46:17;54.08;;;51.35;;
40058;SDS011;25763;49.972;8.568;2022-10-26T15:48:43;51.20;;;48.63;;
40058;SDS011;25763;49.972;8.568;2022-10-26T15:51:18;47.88;;;45.45;;
40058;SDS011;25763;49.972;8.568;2022-10-26T15:53:44;49.13;;;46.40;;
40058;SDS011;25763;49.972;8.568;2022-10-26T15:56:12;46.85;;;44.25;;
40058;SDS011;25763;49.972;8.568;2022-10-26T15:58:40;48.70;;;46.15;;
40058;SDS011;25763;49.972;8.568;2022-10-26T16:01:05;44.15;;;41.85;;
40058;SDS011;25763;49.972;8.568;2022-10-26T16:03:30;42.33;;;40.03;;
40058;SDS011;25763;49.972;8.568;2022-10-26T16:05:57;41.90;;;39.75;;
40058;SDS011;25763;49.972;8.568;2022-10-26T16:08:28;38.40;;;36.40;;
40058;SDS011;25763;49.972;8.568;2022-10-26T16:10:55;35.25;;;33.20;;
40058;SDS011;25763;49.972;8.568;2022-10-26T16:13:21;32.92;;;31.13;;
40058;SDS011;25763;49.972;8.568;2022-10-26T16:15:46;30.25;;;28.65;;
40058;SDS011;25763;49.972;8.568;2022-10-26T16:18:12;27.70;;;26.20;;
40058;SDS011;25763;49.972;8.568;2022-10-26T16:20:38;25.35;;;23.85;;
40058;SDS011;25763;49.972;8.568;2022-10-26T16:23:04;23.70;;;22.40;;
40058;SDS011;25763;49.972;8.568;2022-10-26T16:25:40;20.52;;;19.35;;
40058;SDS011;25763;49.972;8.568;2022-10-26T16:28:07;19.83;;;18.58;;
40058;SDS011;25763;49.972;8.568;2022-10-26T16:30:35;17.20;;;16.20;;
40058;SDS011;25763;49.972;8.568;2022-10-26T16:33:00;16.60;;;15.60;;
40058;SDS011;25763;49.972;8.568;2022-10-26T16:35:26;15.68;;;14.77;;
40058;SDS011;25763;49.972;8.568;2022-10-26T16:37:51;14.75;;;13.75;;
40058;SDS011;25763;49.972;8.568;2022-10-26T16:40:17;14.27;;;13.27;;
40058;SDS011;25763;49.972;8.568;2022-10-26T16:42:42;11.95;;;11.20;;
40058;SDS011;25763;49.972;8.568;2022-10-26T16:45:12;11.30;;;10.60;;
40058;SDS011;25763;49.972;8.568;2022-10-26T16:47:39;10.18;;;9.57;;
40058;SDS011;25763;49.972;8.568;2022-10-26T16:50:08;9.82;;;9.13;;
40058;SDS011;25763;49.972;8.568;2022-10-26T16:52:35;9.88;;;9.27;;
40058;SDS011;25763;49.972;8.568;2022-10-26T16:55:01;10.10;;;9.40;;
40058;SDS011;25763;49.972;8.568;2022-10-26T16:57:28;11.70;;;10.85;;